Terminal Aerodrome Forecast
Issued by NWS Cleveland, OH

Home | Current Version | Previous Version | Graphics & Text | Print | Product List | Glossary Off
Versions: 1 2 3 4 5 6 7 8 9 10 11 12 13 14 15 16 17 18

000
FTUS41 KCLE 050800 AAA
TAFERI
TAF AMD
KERI 050826Z 0508/0606 VRB03KT 1/4SM FG VV010
      TEMPO 0508/0510 2SM BR VV007
     FM051000 10004KT 3SM BR SCT010 BKN035
     FM051200 04006KT 6SM BR BKN035
     FM051600 03007KT P6SM SCT050 BKN120
     FM052200 03010KT P6SM -SHRA BKN050 OVC080=

USA.gov is the U.S. government's official web portal to all federal, state and local government web resources and services.